Time;durP1;ratioP1;P1;durP2;ratioP2;P2;SDS_P1;SDS_P2;PMS_P1;PMS_P2;Temp;Humidity;BMP_temperature;BMP_pressure;BME280_temperature;BME280_humidity;BME280_pressure;Samples;Min_cycle;Max_cycle;Signal;HPM_P1;HPM_P2
2022/12/30 00:01:24;;;;;;;15.63;3.47;;;9.20;99.90;;;;;;5062925;28;20208;-29
2022/12/30 00:03:52;;;;;;;10.50;2.27;;;9.20;99.90;;;;;;5045294;28;20231;-30
2022/12/30 00:06:25;;;;;;;12.27;2.47;;;9.20;99.90;;;;;;5062569;28;20212;-29
2022/12/30 00:08:56;;;;;;;12.23;2.37;;;9.20;99.90;;;;;;5055240;28;20261;-29
2022/12/30 00:11:33;;;;;;;9.60;2.40;;;9.20;99.90;;;;;;5066879;28;20661;-30
2022/12/30 00:34:16;;;;;;;10.23;2.53;;;9.10;99.90;;;;;;5046046;28;20791;-32
2022/12/30 00:36:43;;;;;;;11.03;2.40;;;9.10;99.90;;;;;;5048566;28;20562;-32
2022/12/30 00:39:11;;;;;;;9.10;2.03;;;9.00;99.90;;;;;;5048657;28;20211;-30
2022/12/30 00:44:24;;;;;;;7.07;2.43;;;9.00;99.90;;;;;;5045115;28;20200;-31
2022/12/30 00:46:52;;;;;;;10.00;2.57;;;9.00;99.90;;;;;;5045619;28;20204;-29
2022/12/30 00:57:38;;;;;;;9.10;2.27;;;9.00;99.90;;;;;;5064905;28;20226;-29
2022/12/30 01:00:12;;;;;;;7.77;2.80;;;8.90;99.90;;;;;;5065696;28;20202;-32
2022/12/30 01:02:39;;;;;;;13.17;3.27;;;8.90;99.90;;;;;;5065355;28;20219;-29
2022/12/30 01:05:07;;;;;;;10.40;2.77;;;8.90;99.90;;;;;;5065919;28;20211;-29
2022/12/30 01:07:34;;;;;;;14.70;2.77;;;8.90;99.90;;;;;;5065619;28;20544;-31
2022/12/30 01:10:01;;;;;;;13.10;2.70;;;8.90;99.90;;;;;;5054882;28;20204;-29
2022/12/30 01:12:29;;;;;;;13.87;3.23;;;8.90;99.90;;;;;;5042838;28;20770;-29
2022/12/30 01:14:58;;;;;;;12.37;2.37;;;8.90;99.90;;;;;;5044940;28;20325;-29
2022/12/30 01:17:28;;;;;;;15.93;2.67;;;8.90;99.90;;;;;;5043184;28;20761;-30
2022/12/30 01:19:55;;;;;;;10.03;3.03;;;8.80;99.90;;;;;;5045061;28;20201;-29
2022/12/30 01:22:25;;;;;;;10.50;2.67;;;8.90;99.90;;;;;;5044871;28;20332;-29
2022/12/30 01:24:53;;;;;;;11.80;2.70;;;8.90;99.90;;;;;;5045358;28;20572;-29
2022/12/30 01:27:20;;;;;;;13.47;2.70;;;8.80;99.90;;;;;;5054899;28;20207;-30
2022/12/30 01:29:52;;;;;;;10.93;2.63;;;8.80;99.90;;;;;;5064888;28;20242;-29
2022/12/30 01:32:21;;;;;;;9.97;2.80;;;8.80;99.90;;;;;;5064768;28;20227;-30
2022/12/30 01:34:51;;;;;;;10.10;2.47;;;8.80;99.90;;;;;;5062105;28;20223;-29
2022/12/30 01:37:21;;;;;;;14.03;3.07;;;8.80;99.90;;;;;;5061362;28;20235;-29
2022/12/30 01:39:48;;;;;;;9.77;2.90;;;8.80;99.90;;;;;;5052017;28;20565;-29
2022/12/30 01:42:22;;;;;;;9.03;2.30;;;8.80;99.90;;;;;;5063817;28;20196;-29
2022/12/30 01:44:57;;;;;;;8.43;2.70;;;8.80;99.90;;;;;;5054520;28;20215;-29
2022/12/30 01:48:08;;;;;;;14.07;2.90;;;8.80;99.90;;;;;;5053164;28;20195;-29
2022/12/30 01:50:47;;;;;;;14.40;2.80;;;8.80;99.90;;;;;;5021805;28;20240;-30
2022/12/30 01:53:24;;;;;;;7.23;2.03;;;8.80;99.90;;;;;;5034393;28;20622;-29
2022/12/30 01:55:57;;;;;;;9.53;2.33;;;8.70;99.90;;;;;;5045798;28;20693;-30
2022/12/30 01:58:31;;;;;;;11.03;2.50;;;8.70;99.90;;;;;;5052982;28;20653;-30
2022/12/30 02:00:59;;;;;;;14.67;3.07;;;8.70;99.90;;;;;;5052719;28;20203;-30
2022/12/30 02:03:35;;;;;;;12.80;2.97;;;8.70;99.90;;;;;;5055510;28;20202;-29
2022/12/30 02:06:04;;;;;;;9.80;2.77;;;8.70;99.90;;;;;;5061956;28;20214;-30
2022/12/30 02:08:36;;;;;;;10.50;3.23;;;8.70;99.90;;;;;;5051069;28;20204;-30
2022/12/30 02:11:07;;;;;;;10.17;3.20;;;8.70;99.90;;;;;;5063358;28;20222;-29
2022/12/30 02:13:34;;;;;;;9.73;2.30;;;8.60;99.90;;;;;;5058986;28;20272;-29
2022/12/30 02:16:25;;;;;;;10.80;2.93;;;8.60;99.90;;;;;;5046376;28;20569;-30
2022/12/30 02:19:29;;;;;;;10.67;2.63;;;8.60;99.90;;;;;;5054220;28;20203;-29
2022/12/30 02:22:31;;;;;;;8.43;2.37;;;8.60;99.90;;;;;;5063997;28;20249;-30
2022/12/30 02:25:17;;;;;;;10.90;2.60;;;8.60;99.90;;;;;;5056073;28;20583;-30
2022/12/30 02:28:28;;;;;;;9.30;2.80;;;8.60;99.90;;;;;;5058471;28;20673;-30
2022/12/30 02:30:55;;;;;;;10.67;3.03;;;8.60;99.90;;;;;;5062823;28;20247;-30
2022/12/30 02:33:39;;;;;;;11.33;2.53;;;8.50;99.90;;;;;;5064169;28;20203;-30
2022/12/30 02:36:28;;;;;;;11.93;3.30;;;8.60;99.90;;;;;;5046593;28;20228;-29
2022/12/30 02:39:07;;;;;;;9.40;2.70;;;8.50;99.90;;;;;;5044589;28;20283;-30
2022/12/30 02:44:36;;;;;;;11.57;2.47;;;8.50;99.90;;;;;;5047607;28;20493;-30
2022/12/30 02:47:19;;;;;;;13.07;2.67;;;8.50;99.90;;;;;;5047656;28;20231;-29
2022/12/30 02:52:47;;;;;;;7.13;2.40;;;8.50;99.90;;;;;;5060930;28;20219;-30
2022/12/30 02:55:17;;;;;;;9.40;2.60;;;8.50;99.90;;;;;;5067589;28;20203;-30
2022/12/30 02:57:47;;;;;;;8.63;2.77;;;8.40;99.90;;;;;;5066620;28;20290;-30
2022/12/30 03:06:43;;;;;;;11.90;2.73;;;8.40;99.90;;;;;;5066677;28;20216;-30
2022/12/30 03:09:35;;;;;;;8.80;2.90;;;8.40;99.90;;;;;;5060383;28;20304;-30
2022/12/30 03:12:25;;;;;;;10.57;2.60;;;8.40;99.90;;;;;;5067219;28;20615;-30
2022/12/30 03:14:58;;;;;;;13.43;2.97;;;8.40;99.90;;;;;;5057102;28;20670;-30
2022/12/30 03:17:39;;;;;;;8.80;2.70;;;8.40;99.90;;;;;;5061957;28;20229;-30
2022/12/30 03:20:11;;;;;;;12.40;2.60;;;8.40;99.90;;;;;;5067273;28;20659;-30
2022/12/30 03:28:19;;;;;;;9.90;2.97;;;8.30;99.90;;;;;;5054980;28;20236;-30
2022/12/30 03:30:54;;;;;;;8.30;2.67;;;8.30;99.90;;;;;;5049366;28;20192;-30
2022/12/30 03:33:21;;;;;;;12.23;2.80;;;8.30;99.90;;;;;;5047686;28;20290;-30
2022/12/30 03:36:13;;;;;;;11.70;3.03;;;8.40;99.90;;;;;;5063435;28;20346;-30
2022/12/30 03:38:45;;;;;;;10.47;2.90;;;8.30;99.90;;;;;;5057645;28;20623;-30
2022/12/30 03:41:21;;;;;;;11.33;3.07;;;8.30;99.90;;;;;;5063444;28;20410;-30
2022/12/30 03:43:52;;;;;;;12.33;2.63;;;8.30;99.90;;;;;;5053110;28;20239;-30
2022/12/30 03:46:20;;;;;;;10.50;2.37;;;8.30;99.90;;;;;;5066656;28;20216;-30
2022/12/30 03:48:47;;;;;;;10.53;3.10;;;8.30;99.90;;;;;;5065194;28;20208;-30
2022/12/30 03:51:19;;;;;;;13.17;2.90;;;8.30;99.90;;;;;;5066532;28;20235;-30
2022/12/30 03:53:46;;;;;;;12.53;2.70;;;8.30;99.90;;;;;;5065251;28;20223;-30
2022/12/30 03:56:16;;;;;;;8.00;2.40;;;8.30;99.90;;;;;;5066285;28;20214;-30
2022/12/30 03:58:45;;;;;;;10.63;2.87;;;8.30;99.90;;;;;;5065830;28;20196;-30
2022/12/30 04:01:12;;;;;;;13.63;2.90;;;8.30;99.90;;;;;;5066223;28;20635;-30
2022/12/30 04:03:42;;;;;;;9.37;2.53;;;8.20;99.90;;;;;;5066517;28;20345;-30
2022/12/30 04:06:09;;;;;;;13.23;3.57;;;8.20;99.90;;;;;;5062306;28;20247;-30
2022/12/30 04:08:39;;;;;;;11.20;3.30;;;8.20;99.90;;;;;;5058545;28;20216;-30
2022/12/30 04:11:08;;;;;;;12.20;3.40;;;8.20;99.90;;;;;;5060995;28;20706;-30
2022/12/30 04:13:35;;;;;;;11.20;2.87;;;8.20;99.90;;;;;;5065512;28;20513;-30
2022/12/30 04:16:03;;;;;;;10.97;3.30;;;8.20;99.90;;;;;;5063239;28;20226;-30
2022/12/30 04:18:37;;;;;;;10.90;2.83;;;8.20;99.90;;;;;;5066092;28;20287;-30
2022/12/30 04:21:08;;;;;;;10.90;2.90;;;8.20;99.90;;;;;;5066458;28;20223;-30
2022/12/30 04:23:35;;;;;;;11.93;2.80;;;8.20;99.90;;;;;;5049195;28;20204;-30
2022/12/30 04:26:03;;;;;;;15.63;3.30;;;8.20;99.90;;;;;;5062265;28;20294;-30
2022/12/30 04:28:32;;;;;;;15.23;3.20;;;8.10;99.90;;;;;;5063754;28;20997;-30
2022/12/30 04:30:59;;;;;;;10.33;2.67;;;8.10;99.90;;;;;;5064021;28;20601;-30
2022/12/30 04:33:27;;;;;;;11.30;3.00;;;8.20;99.90;;;;;;5048306;28;20202;-30
2022/12/30 04:35:54;;;;;;;9.57;2.97;;;8.10;99.90;;;;;;5057384;28;20211;-30
2022/12/30 04:38:24;;;;;;;11.97;3.13;;;8.10;99.90;;;;;;5065450;28;20681;-30
2022/12/30 04:40:54;;;;;;;9.10;2.77;;;8.10;99.90;;;;;;5066071;28;20354;-30
2022/12/30 04:43:24;;;;;;;11.70;3.30;;;8.10;99.90;;;;;;5064850;28;20250;-30
2022/12/30 04:45:53;;;;;;;11.23;2.80;;;8.10;99.90;;;;;;5066180;28;20204;-31
2022/12/30 04:48:23;;;;;;;9.50;2.83;;;8.10;99.90;;;;;;5065998;28;20199;-32
2022/12/30 04:50:52;;;;;;;13.77;2.90;;;8.10;99.90;;;;;;5064471;28;20271;-32
2022/12/30 04:53:22;;;;;;;8.30;2.73;;;8.10;99.90;;;;;;5066057;28;20298;-33
2022/12/30 04:55:54;;;;;;;9.43;3.07;;;8.10;99.90;;;;;;5065656;28;20261;-32
2022/12/30 04:58:24;;;;;;;11.80;3.23;;;8.10;99.90;;;;;;5064624;28;20252;-33
2022/12/30 05:00:54;;;;;;;8.93;3.07;;;8.10;99.90;;;;;;5065991;28;20203;-33
2022/12/30 05:03:25;;;;;;;9.90;3.00;;;8.10;99.90;;;;;;5065182;28;20212;-33
2022/12/30 05:05:52;;;;;;;9.30;3.17;;;8.10;99.90;;;;;;5065235;28;20204;-33
2022/12/30 05:08:21;;;;;;;12.30;4.20;;;8.10;99.90;;;;;;5053932;28;20257;-33
2022/12/30 05:10:55;;;;;;;12.83;2.63;;;8.10;99.90;;;;;;5043972;28;20668;-32
2022/12/30 05:13:24;;;;;;;12.33;2.87;;;8.10;99.90;;;;;;5044797;28;20291;-33
2022/12/30 05:15:52;;;;;;;13.40;3.07;;;8.10;99.90;;;;;;5044882;28;20266;-33
2022/12/30 05:18:19;;;;;;;10.67;2.73;;;8.10;99.90;;;;;;5045580;28;20204;-32
2022/12/30 05:20:47;;;;;;;14.20;3.33;;;8.10;99.90;;;;;;5045283;28;20223;-33
2022/12/30 05:26:15;;;;;;;9.73;3.03;;;8.10;99.90;;;;;;5049383;28;20563;-33
2022/12/30 05:28:46;;;;;;;8.30;3.93;;;8.10;99.90;;;;;;5060400;28;20287;-33
2022/12/30 05:31:15;;;;;;;9.90;2.93;;;8.10;99.90;;;;;;5063688;28;20294;-33
2022/12/30 05:33:42;;;;;;;10.27;2.73;;;8.10;99.90;;;;;;5059442;28;20615;-32
2022/12/30 05:36:17;;;;;;;13.40;3.00;;;8.10;99.90;;;;;;5048532;28;20247;-33
2022/12/30 05:38:44;;;;;;;12.67;2.70;;;8.10;99.90;;;;;;5062953;28;20203;-33
2022/12/30 05:41:13;;;;;;;7.90;2.90;;;8.10;99.90;;;;;;5065038;28;20249;-32
2022/12/30 05:43:47;;;;;;;8.83;2.70;;;8.20;99.90;;;;;;5054792;28;20308;-33
2022/12/30 05:46:18;;;;;;;7.40;2.70;;;8.20;99.90;;;;;;5061868;28;20219;-32
2022/12/30 05:48:48;;;;;;;7.43;2.63;;;8.20;99.90;;;;;;5056063;28;20207;-33
2022/12/30 05:51:22;;;;;;;7.10;3.20;;;8.20;99.90;;;;;;5063213;28;20641;-33
2022/12/30 05:53:52;;;;;;;7.37;2.83;;;8.20;99.90;;;;;;5053184;28;20261;-33
2022/12/30 05:56:22;;;;;;;7.97;2.27;;;8.20;99.90;;;;;;5048432;28;20227;-33
2022/12/30 05:58:51;;;;;;;9.90;3.07;;;8.20;99.90;;;;;;5046383;28;20202;-32
2022/12/30 06:01:22;;;;;;;8.43;2.40;;;8.20;99.90;;;;;;5061490;28;20840;-33
2022/12/30 06:03:53;;;;;;;8.43;2.27;;;8.30;99.90;;;;;;5060524;28;20211;-33
2022/12/30 06:06:20;;;;;;;9.27;2.60;;;8.20;99.90;;;;;;5053786;28;20772;-34
2022/12/30 06:08:50;;;;;;;7.97;2.20;;;8.30;99.90;;;;;;5043974;28;20246;-32
2022/12/30 06:11:21;;;;;;;7.20;2.23;;;8.30;99.90;;;;;;5058366;28;20214;-33
2022/12/30 06:13:49;;;;;;;9.87;2.40;;;8.30;99.90;;;;;;5050312;28;20517;-32
2022/12/30 06:16:18;;;;;;;8.50;2.50;;;8.40;99.90;;;;;;5052673;28;20258;-33
2022/12/30 06:18:45;;;;;;;10.43;2.90;;;8.40;99.90;;;;;;5060035;28;20663;-31
2022/12/30 06:21:12;;;;;;;9.63;2.30;;;8.40;99.90;;;;;;5049588;28;20310;-31
2022/12/30 06:23:40;;;;;;;6.13;2.07;;;8.50;99.90;;;;;;5057855;28;20734;-32
2022/12/30 06:26:09;;;;;;;6.77;2.83;;;8.50;99.90;;;;;;5050304;28;20207;-32
2022/12/30 06:28:39;;;;;;;6.73;2.07;;;8.50;99.90;;;;;;5050277;28;20320;-32
2022/12/30 06:31:08;;;;;;;6.03;2.50;;;8.50;99.90;;;;;;5051262;28;20216;-32
2022/12/30 06:33:35;;;;;;;8.07;2.47;;;8.60;99.90;;;;;;5058359;28;20634;-32
2022/12/30 06:36:05;;;;;;;8.47;2.63;;;8.60;99.90;;;;;;5057454;28;20293;-32
2022/12/30 06:38:33;;;;;;;9.73;2.40;;;8.70;99.90;;;;;;5064863;28;20279;-32
2022/12/30 06:41:00;;;;;;;8.83;2.13;;;8.70;99.90;;;;;;5068139;28;20472;-32
2022/12/30 06:43:28;;;;;;;10.27;2.33;;;8.70;99.90;;;;;;5067697;28;20314;-31
2022/12/30 06:45:58;;;;;;;7.83;1.73;;;8.80;99.90;;;;;;5068200;28;20633;-32
2022/12/30 06:48:25;;;;;;;9.13;2.27;;;8.80;99.90;;;;;;5067889;28;20747;-32
2022/12/30 06:51:02;;;;;;;6.63;2.30;;;8.80;99.90;;;;;;5053005;28;20227;-29
2022/12/30 06:53:34;;;;;;;8.83;2.10;;;8.90;99.90;;;;;;5048903;28;20268;-30
2022/12/30 06:56:02;;;;;;;5.77;2.07;;;8.90;99.90;;;;;;5058424;28;20193;-29
2022/12/30 06:58:30;;;;;;;5.07;1.80;;;8.90;99.90;;;;;;5051404;28;20785;-29
2022/12/30 07:01:00;;;;;;;4.90;1.70;;;9.00;99.90;;;;;;5059994;28;20243;-29
2022/12/30 07:03:34;;;;;;;5.13;1.73;;;9.00;99.90;;;;;;5064975;28;20559;-29
2022/12/30 07:06:01;;;;;;;5.87;2.00;;;9.00;99.90;;;;;;5058573;28;20216;-29
2022/12/30 07:08:28;;;;;;;6.57;1.87;;;9.00;99.90;;;;;;5067052;28;20296;-29
2022/12/30 07:11:00;;;;;;;6.77;2.33;;;9.10;99.90;;;;;;5067848;28;20980;-29
2022/12/30 07:13:31;;;;;;;6.37;2.20;;;9.00;99.90;;;;;;5057029;28;20208;-29
2022/12/30 07:15:58;;;;;;;5.53;1.97;;;9.10;99.90;;;;;;5058233;28;20329;-29
2022/12/30 07:18:25;;;;;;;3.53;1.70;;;9.10;99.90;;;;;;5066113;28;20297;-29
2022/12/30 07:20:55;;;;;;;7.53;1.87;;;9.10;99.90;;;;;;5049344;28;20195;-29
2022/12/30 07:23:25;;;;;;;6.30;1.80;;;9.10;99.90;;;;;;5059250;28;20200;-29
2022/12/30 07:25:52;;;;;;;3.33;1.40;;;9.10;99.90;;;;;;5048076;28;20246;-29
2022/12/30 07:28:21;;;;;;;5.67;1.80;;;9.10;99.90;;;;;;5048893;28;20212;-29
2022/12/30 07:30:48;;;;;;;7.00;2.03;;;9.20;99.90;;;;;;5047158;28;20727;-31
2022/12/30 07:33:18;;;;;;;5.23;1.77;;;9.20;99.90;;;;;;5047844;28;20694;-31
2022/12/30 07:35:45;;;;;;;6.00;1.70;;;9.20;99.90;;;;;;5055158;28;20831;-31
2022/12/30 07:38:15;;;;;;;5.03;1.70;;;9.20;99.90;;;;;;5052946;28;20564;-31
2022/12/30 07:40:44;;;;;;;5.70;1.73;;;9.20;99.90;;;;;;5056466;28;20306;-31
2022/12/30 07:43:14;;;;;;;4.93;1.70;;;9.30;99.90;;;;;;5064598;28;20265;-31
2022/12/30 07:45:46;;;;;;;4.43;1.73;;;9.30;99.90;;;;;;5065361;28;20295;-31
2022/12/30 07:48:18;;;;;;;4.20;1.53;;;9.30;99.90;;;;;;5062417;28;20214;-38
2022/12/30 07:50:45;;;;;;;4.27;1.63;;;9.30;99.90;;;;;;5055580;28;20714;-31
2022/12/30 07:53:17;;;;;;;4.60;1.87;;;9.30;99.90;;;;;;5054330;28;20214;-31
2022/12/30 07:55:44;;;;;;;3.10;1.40;;;9.30;99.90;;;;;;5050441;28;20297;-31
2022/12/30 07:58:14;;;;;;;3.60;1.40;;;9.30;99.90;;;;;;5058861;28;20318;-31
2022/12/30 08:00:41;;;;;;;7.57;1.60;;;9.30;99.90;;;;;;5063146;28;20227;-31
2022/12/30 08:03:13;;;;;;;3.67;1.57;;;9.30;99.90;;;;;;5064045;28;20651;-31
2022/12/30 08:05:44;;;;;;;3.37;1.20;;;9.30;99.90;;;;;;5050441;28;20632;-31
2022/12/30 08:08:13;;;;;;;3.00;1.20;;;9.30;99.90;;;;;;5058173;28;20291;-31
2022/12/30 08:10:52;;;;;;;3.57;1.30;;;9.30;99.90;;;;;;5045737;28;20598;-31
2022/12/30 08:13:24;;;;;;;3.17;1.50;;;9.30;99.90;;;;;;5045659;28;20215;-31
2022/12/30 08:15:51;;;;;;;2.83;1.20;;;9.30;99.90;;;;;;5047459;28;20323;-31
2022/12/30 08:18:21;;;;;;;4.37;1.73;;;9.30;99.90;;;;;;5063484;28;20219;-31
2022/12/30 08:20:48;;;;;;;3.63;1.47;;;9.40;99.90;;;;;;5054036;28;20282;-31
2022/12/30 08:23:15;;;;;;;4.27;1.43;;;9.40;99.90;;;;;;5047194;28;20223;-31
2022/12/30 08:25:42;;;;;;;5.93;1.40;;;9.40;99.90;;;;;;5056262;28;20210;-31
2022/12/30 08:28:18;;;;;;;3.17;1.33;;;9.40;99.90;;;;;;5064496;28;20200;-31
2022/12/30 08:30:46;;;;;;;5.43;1.77;;;9.40;99.90;;;;;;5066281;28;20221;-31
2022/12/30 08:33:13;;;;;;;3.60;1.23;;;9.50;99.90;;;;;;5049042;28;20306;-31
2022/12/30 08:35:51;;;;;;;5.13;1.70;;;9.40;99.90;;;;;;5049452;28;20203;-31
2022/12/30 08:38:18;;;;;;;6.23;1.80;;;9.50;99.90;;;;;;5053963;28;20314;-31
2022/12/30 08:40:45;;;;;;;4.47;2.30;;;9.50;99.90;;;;;;5066267;28;20219;-31
2022/12/30 08:43:12;;;;;;;6.07;1.50;;;9.50;99.90;;;;;;5065037;28;20192;-31
2022/12/30 08:45:42;;;;;;;6.70;1.43;;;9.60;99.90;;;;;;5053131;28;20253;-31
2022/12/30 08:48:09;;;;;;;4.80;1.73;;;9.60;99.90;;;;;;5046123;28;20222;-31
2022/12/30 08:50:40;;;;;;;7.07;1.80;;;9.60;99.90;;;;;;5060432;28;20713;-31
2022/12/30 08:53:10;;;;;;;5.57;1.50;;;9.60;99.90;;;;;;5042022;28;21469;-31
2022/12/30 08:55:37;;;;;;;3.13;1.20;;;9.70;99.90;;;;;;5065300;28;20203;-31
2022/12/30 08:58:06;;;;;;;3.67;1.27;;;9.70;99.90;;;;;;5063605;28;20319;-31
2022/12/30 09:00:37;;;;;;;9.37;1.70;;;9.70;99.90;;;;;;5046917;28;20227;-31
2022/12/30 09:03:04;;;;;;;4.40;1.40;;;9.70;99.90;;;;;;5045965;28;20223;-31
2022/12/30 09:05:32;;;;;;;8.00;1.63;;;9.70;99.90;;;;;;5048305;28;20703;-31
2022/12/30 09:08:02;;;;;;;5.87;1.30;;;9.80;99.90;;;;;;5048645;28;20196;-31
2022/12/30 09:10:29;;;;;;;7.83;1.83;;;9.80;99.90;;;;;;5058552;28;20262;-31
2022/12/30 09:12:56;;;;;;;3.83;1.60;;;9.80;99.90;;;;;;5056173;28;20938;-31
2022/12/30 09:15:23;;;;;;;5.07;1.50;;;9.90;99.90;;;;;;5063132;28;20629;-31
2022/12/30 09:17:53;;;;;;;6.30;1.63;;;9.90;99.90;;;;;;5061930;28;20277;-31
2022/12/30 09:20:20;;;;;;;4.07;1.50;;;10.00;99.90;;;;;;5064211;28;20720;-31
2022/12/30 09:22:49;;;;;;;9.40;1.70;;;10.00;99.90;;;;;;5048459;28;20208;-30
2022/12/30 09:25:16;;;;;;;8.13;1.63;;;10.00;99.90;;;;;;5055834;28;20298;-30
2022/12/30 09:27:45;;;;;;;5.33;1.50;;;10.00;99.90;;;;;;5058058;28;20646;-30
2022/12/30 09:30:15;;;;;;;8.13;1.73;;;10.10;99.90;;;;;;5053143;28;20754;-30
2022/12/30 09:32:42;;;;;;;7.33;1.37;;;10.10;99.90;;;;;;5044036;28;20727;-30
2022/12/30 09:35:09;;;;;;;9.07;2.17;;;10.20;99.90;;;;;;5047631;28;20546;-30
2022/12/30 09:37:36;;;;;;;3.97;1.43;;;10.20;99.90;;;;;;5047130;28;20211;-30
2022/12/30 09:40:04;;;;;;;5.63;1.50;;;10.20;99.90;;;;;;5061812;28;20303;-30
2022/12/30 09:45:41;;;;;;;6.33;1.60;;;10.30;99.90;;;;;;5044810;28;20222;-30
2022/12/30 09:48:19;;;;;;;5.13;1.37;;;10.20;99.90;;;;;;5052920;28;20234;-30
2022/12/30 09:50:53;;;;;;;6.13;1.40;;;10.30;99.90;;;;;;5064998;28;20683;-30
2022/12/30 09:53:43;;;;;;;3.80;1.23;;;10.30;99.90;;;;;;5053298;28;20590;-30
2022/12/30 09:56:17;;;;;;;6.97;1.50;;;10.30;99.90;;;;;;5048895;28;20290;-30
2022/12/30 09:58:48;;;;;;;4.83;1.30;;;10.40;99.90;;;;;;5048183;28;20255;-30
2022/12/30 10:01:36;;;;;;;6.67;1.50;;;10.40;99.90;;;;;;5062902;28;20607;-30
2022/12/30 10:04:15;;;;;;;9.07;1.70;;;10.40;99.90;;;;;;5064110;28;20562;-30
2022/12/30 10:06:51;;;;;;;6.23;1.67;;;10.40;99.90;;;;;;5052947;28;20197;-29
2022/12/30 10:09:36;;;;;;;10.27;2.20;;;10.50;99.90;;;;;;5065290;28;20624;-29
2022/12/30 10:12:28;;;;;;;6.90;1.80;;;10.50;99.90;;;;;;5056148;28;20208;-29
2022/12/30 10:14:55;;;;;;;7.53;2.00;;;10.50;99.90;;;;;;5060021;28;20223;-29
2022/12/30 10:17:52;;;;;;;6.23;1.87;;;10.60;99.90;;;;;;5064293;28;20755;-29
2022/12/30 10:20:47;;;;;;;8.70;1.90;;;10.60;99.90;;;;;;5051897;28;20538;-29
2022/12/30 10:23:23;;;;;;;5.70;1.83;;;10.60;99.90;;;;;;5053785;28;20253;-29
2022/12/30 10:26:15;;;;;;;5.83;1.73;;;10.60;99.90;;;;;;5057022;28;20242;-29
2022/12/30 10:28:47;;;;;;;6.17;1.60;;;10.70;99.90;;;;;;5049957;28;20583;-29
2022/12/30 10:31:20;;;;;;;8.97;2.17;;;10.70;99.90;;;;;;5053101;28;20204;-29
2022/12/30 10:33:51;;;;;;;7.17;1.80;;;10.70;99.90;;;;;;5052971;28;20216;-29
2022/12/30 10:36:32;;;;;;;5.00;1.43;;;10.70;99.90;;;;;;5053444;28;20215;-29
2022/12/30 10:39:12;;;;;;;6.67;1.60;;;10.80;99.90;;;;;;5057321;28;20220;-29
2022/12/30 10:41:59;;;;;;;6.57;1.93;;;10.80;99.90;;;;;;5051847;28;20706;-29
2022/12/30 10:44:54;;;;;;;6.07;1.73;;;10.90;99.90;;;;;;5031259;28;20208;-30
2022/12/30 10:47:28;;;;;;;9.73;2.17;;;10.90;99.90;;;;;;5056040;28;20208;-30
2022/12/30 10:50:07;;;;;;;7.73;1.93;;;10.90;99.90;;;;;;5059363;28;20338;-30
2022/12/30 10:52:34;;;;;;;7.50;1.77;;;10.90;99.90;;;;;;5047270;28;20226;-30
2022/12/30 10:55:17;;;;;;;5.43;1.37;;;11.00;99.90;;;;;;5052961;28;20192;-30
2022/12/30 10:57:47;;;;;;;6.87;1.93;;;11.00;99.90;;;;;;5046679;28;20805;-30
2022/12/30 11:00:15;;;;;;;6.67;2.00;;;11.00;99.90;;;;;;5054586;28;20223;-30
2022/12/30 11:02:56;;;;;;;8.27;2.00;;;11.10;99.90;;;;;;5050804;28;20200;-30
2022/12/30 11:05:34;;;;;;;6.17;1.90;;;11.10;99.90;;;;;;5058795;28;20303;-30
2022/12/30 11:08:04;;;;;;;7.97;1.67;;;11.10;99.90;;;;;;5051914;28;20210;-30
2022/12/30 11:10:34;;;;;;;9.27;1.70;;;11.10;99.90;;;;;;5057452;28;20247;-30
2022/12/30 11:16:17;;;;;;;7.27;1.50;;;11.20;99.90;;;;;;5062324;28;20692;-30
2022/12/30 11:18:47;;;;;;;6.23;1.77;;;11.20;99.90;;;;;;5056682;28;20242;-30
2022/12/30 11:21:26;;;;;;;7.67;1.47;;;11.30;99.90;;;;;;5060077;28;20207;-30
2022/12/30 11:23:58;;;;;;;9.67;1.40;;;11.30;99.90;;;;;;5056192;28;20681;-30
2022/12/30 11:26:28;;;;;;;7.40;1.53;;;11.30;99.90;;;;;;5062669;28;20663;-30
2022/12/30 11:29:04;;;;;;;4.83;1.47;;;11.40;99.90;;;;;;5065246;28;20223;-30
2022/12/30 11:31:41;;;;;;;5.30;1.27;;;11.40;99.90;;;;;;5063945;28;20203;-30
2022/12/30 11:34:27;;;;;;;5.67;1.27;;;11.40;99.90;;;;;;5056097;28;20601;-30
2022/12/30 11:36:57;;;;;;;2.90;1.07;;;11.50;99.90;;;;;;5043736;28;20295;-30
2022/12/30 11:39:26;;;;;;;4.77;1.13;;;11.40;99.90;;;;;;5046785;28;20579;-30
2022/12/30 11:41:59;;;;;;;5.53;1.50;;;11.50;99.90;;;;;;5050959;28;20258;-30
2022/12/30 11:44:31;;;;;;;4.20;1.40;;;11.50;99.90;;;;;;5047978;28;20323;-30
2022/12/30 11:47:03;;;;;;;3.87;1.50;;;11.50;99.90;;;;;;5054328;28;20555;-30
2022/12/30 11:49:35;;;;;;;7.73;1.57;;;11.50;99.90;;;;;;5065186;28;20219;-30
2022/12/30 11:52:11;;;;;;;5.93;1.57;;;11.50;99.90;;;;;;5061436;28;20207;-30
2022/12/30 11:54:52;;;;;;;4.50;1.17;;;11.50;99.90;;;;;;5054648;28;20220;-30
2022/12/30 11:57:26;;;;;;;3.27;1.00;;;11.50;99.90;;;;;;5051786;28;20235;-30
2022/12/30 12:00:06;;;;;;;2.43;1.20;;;11.50;99.90;;;;;;5055568;28;20222;-30
2022/12/30 12:02:40;;;;;;;5.43;1.30;;;11.50;99.90;;;;;;5059115;28;20290;-30
2022/12/30 12:05:42;;;;;;;5.13;1.70;;;11.60;99.90;;;;;;5045926;28;20300;-30
2022/12/30 12:08:21;;;;;;;2.60;1.03;;;11.60;99.90;;;;;;5045044;28;20303;-32
2022/12/30 12:10:55;;;;;;;3.47;1.10;;;11.60;99.90;;;;;;5055296;28;20283;-32
2022/12/30 12:13:47;;;;;;;2.93;1.10;;;11.50;99.90;;;;;;5062654;28;20215;-32
2022/12/30 12:16:33;;;;;;;3.00;0.90;;;11.60;99.90;;;;;;5061417;28;20306;-33
2022/12/30 12:19:13;;;;;;;3.60;1.10;;;11.50;99.90;;;;;;5064462;28;20576;-32
2022/12/30 12:21:44;;;;;;;3.07;1.10;;;11.50;99.90;;;;;;5056089;28;20211;-33
2022/12/30 12:24:23;;;;;;;3.27;1.07;;;11.50;99.90;;;;;;5056682;28;20210;-33
2022/12/30 12:27:10;;;;;;;3.93;1.00;;;11.50;99.90;;;;;;5061565;28;20478;-32
2022/12/30 12:29:38;;;;;;;2.60;1.00;;;11.60;99.90;;;;;;5053609;28;20216;-33
2022/12/30 12:32:52;;;;;;;3.37;0.97;;;11.60;99.90;;;;;;5064017;28;20223;-32
2022/12/30 12:35:54;;;;;;;4.03;1.30;;;11.70;99.90;;;;;;5064183;28;20203;-33
2022/12/30 12:38:30;;;;;;;2.83;0.70;;;11.70;99.90;;;;;;5048150;28;20317;-33
2022/12/30 12:41:04;;;;;;;2.70;0.90;;;11.70;99.90;;;;;;5063157;28;20273;-33
2022/12/30 12:43:45;;;;;;;2.17;0.80;;;11.60;99.90;;;;;;5056247;28;20227;-33
2022/12/30 12:46:36;;;;;;;5.00;0.80;;;11.70;99.90;;;;;;5055361;28;20203;-32
2022/12/30 12:49:18;;;;;;;3.37;1.10;;;11.70;99.90;;;;;;5063292;28;20701;-33
2022/12/30 12:52:28;;;;;;;3.13;0.83;;;11.70;99.90;;;;;;5053952;28;20236;-33
2022/12/30 12:55:16;;;;;;;1.90;1.00;;;11.70;99.90;;;;;;5062716;28;20199;-32
2022/12/30 12:58:00;;;;;;;2.27;1.10;;;11.70;99.90;;;;;;5048301;28;20268;-34
2022/12/30 13:01:00;;;;;;;2.63;0.90;;;11.70;99.90;;;;;;5056820;28;20545;-33
2022/12/30 13:03:33;;;;;;;1.57;1.00;;;11.70;99.90;;;;;;5048932;28;20304;-33
2022/12/30 13:06:22;;;;;;;3.70;1.10;;;11.70;99.90;;;;;;5051726;28;20203;-33
2022/12/30 13:09:04;;;;;;;3.40;1.07;;;11.70;99.90;;;;;;5053349;28;20216;-33
2022/12/30 13:11:31;;;;;;;1.67;0.90;;;11.70;99.90;;;;;;5052608;28;20699;-33
2022/12/30 13:14:29;;;;;;;2.53;1.10;;;11.70;99.90;;;;;;5044738;28;20226;-33
2022/12/30 13:17:03;;;;;;;0.93;0.67;;;11.70;99.90;;;;;;5056855;28;20302;-33
2022/12/30 13:19:35;;;;;;;1.53;0.90;;;11.70;99.90;;;;;;5058435;28;20223;-33
2022/12/30 13:22:07;;;;;;;1.93;0.80;;;11.70;99.90;;;;;;5057940;28;20291;-33
2022/12/30 13:24:43;;;;;;;1.33;0.70;;;11.70;99.90;;;;;;5047946;28;20216;-33
2022/12/30 13:27:28;;;;;;;1.47;0.60;;;11.70;99.90;;;;;;5059780;28;20197;-33
2022/12/30 13:30:00;;;;;;;1.33;0.50;;;11.70;99.90;;;;;;5048222;28;20690;-33
2022/12/30 13:32:47;;;;;;;0.80;0.50;;;11.80;99.90;;;;;;5060407;28;20218;-33
2022/12/30 13:35:26;;;;;;;1.07;0.60;;;11.80;99.90;;;;;;5055526;28;20282;-33
2022/12/30 13:38:10;;;;;;;0.60;0.40;;;11.80;99.90;;;;;;5062654;28;20579;-34
2022/12/30 13:40:50;;;;;;;0.80;0.50;;;11.80;99.90;;;;;;5044605;28;20702;-33
2022/12/30 13:43:17;;;;;;;0.63;0.40;;;11.80;99.90;;;;;;5046073;28;20223;-33
2022/12/30 13:45:47;;;;;;;1.63;0.60;;;11.80;99.90;;;;;;5052088;28;20227;-33
2022/12/30 13:48:33;;;;;;;0.93;0.40;;;11.80;99.90;;;;;;5049581;28;20225;-33
2022/12/30 13:51:04;;;;;;;0.30;0.30;;;11.90;99.90;;;;;;5050887;28;20243;-33
2022/12/30 13:53:43;;;;;;;1.27;0.50;;;11.90;99.90;;;;;;5056648;28;20204;-33
2022/12/30 13:56:32;;;;;;;0.20;0.20;;;11.90;99.90;;;;;;5050342;28;20199;-33
2022/12/30 13:59:04;;;;;;;0.30;0.30;;;11.90;99.90;;;;;;5052494;28;20944;-33
2022/12/30 14:01:39;;;;;;;0.77;0.20;;;12.00;99.90;;;;;;5064493;28;20557;-33
2022/12/30 14:04:10;;;;;;;0.50;0.30;;;12.00;99.90;;;;;;5061585;28;20214;-33
2022/12/30 14:06:45;;;;;;;0.73;0.30;;;12.00;99.90;;;;;;5056594;28;20207;-33
2022/12/30 14:09:15;;;;;;;0.40;0.23;;;12.00;99.90;;;;;;5052866;28;20276;-33
2022/12/30 14:12:05;;;;;;;0.20;0.20;;;12.10;99.90;;;;;;5057155;28;20208;-34
2022/12/30 14:14:36;;;;;;;0.20;0.20;;;12.10;99.90;;;;;;5055598;28;20229;-33
2022/12/30 14:17:13;;;;;;;0.87;0.30;;;12.10;99.90;;;;;;5048409;28;20199;-33
2022/12/30 14:20:00;;;;;;;5.10;0.40;;;12.10;99.90;;;;;;5059143;28;20789;-33
2022/12/30 14:22:41;;;;;;;0.20;0.20;;;12.20;99.90;;;;;;5059562;28;21113;-33